Time;durP1;ratioP1;P1;durP2;ratioP2;P2;SDS_P1;SDS_P2;PMS_P1;PMS_P2;Temp;Humidity;BMP_temperature;BMP_pressure;BME280_temperature;BME280_humidity;BME280_pressure;Samples;Min_cycle;Max_cycle;Signal;HPM_P1;HPM_P2
2022/12/10 00:01:18;;;;;;;65.80;31.30;;;;;;;;;;5009826;28;98524;-68
2022/12/10 00:03:45;;;;;;;66.28;30.80;;;;;;;;;;5010228;28;99593;-68
2022/12/10 00:06:16;;;;;;;67.40;30.83;;;;;;;;;;5009661;28;100654;-68
2022/12/10 00:08:42;;;;;;;66.43;32.22;;;;;;;;;;5008022;28;98604;-68
2022/12/10 00:11:10;;;;;;;71.20;32.67;;;;;;;;;;5008271;28;100665;-68
2022/12/10 00:13:36;;;;;;;70.05;31.05;;;;;;;;;;5012920;28;100872;-68
2022/12/10 00:16:04;;;;;;;64.78;28.55;;;;;;;;;;5009898;28;99564;-68
2022/12/10 00:18:30;;;;;;;71.30;30.25;;;;;;;;;;5009841;28;104264;-68
2022/12/10 00:20:57;;;;;;;62.40;31.25;;;;;;;;;;5009891;28;98794;-69
2022/12/10 00:23:23;;;;;;;63.83;30.25;;;;;;;;;;5009488;28;100723;-68
2022/12/10 00:25:49;;;;;;;73.55;30.42;;;;;;;;;;5009297;28;99578;-68
2022/12/10 00:28:15;;;;;;;67.80;29.77;;;;;;;;;;5010094;28;97772;-68
2022/12/10 00:30:42;;;;;;;66.78;31.90;;;;;;;;;;5009682;28;98549;-68
2022/12/10 00:33:08;;;;;;;69.30;31.85;;;;;;;;;;5009175;28;99351;-68
2022/12/10 00:35:35;;;;;;;64.40;31.58;;;;;;;;;;5012069;28;99416;-68
2022/12/10 00:38:01;;;;;;;76.97;32.95;;;;;;;;;;5009093;28;99796;-69
2022/12/10 00:40:28;;;;;;;72.63;32.03;;;;;;;;;;5009746;28;98848;-68
2022/12/10 00:42:54;;;;;;;72.53;35.10;;;;;;;;;;5009350;28;100487;-68
2022/12/10 00:45:20;;;;;;;71.38;33.67;;;;;;;;;;5008796;28;100752;-68
2022/12/10 00:47:47;;;;;;;77.70;34.10;;;;;;;;;;5009305;28;98896;-68
2022/12/10 00:50:13;;;;;;;74.82;33.13;;;;;;;;;;5009443;28;100659;-68
2022/12/10 00:52:39;;;;;;;75.43;34.55;;;;;;;;;;5009646;28;99028;-68
2022/12/10 00:55:06;;;;;;;82.13;35.83;;;;;;;;;;5009798;28;98526;-68
2022/12/10 00:57:32;;;;;;;80.75;33.88;;;;;;;;;;5011139;28;100344;-68
2022/12/10 00:59:58;;;;;;;74.35;32.75;;;;;;;;;;5008863;28;99586;-68
2022/12/10 01:02:25;;;;;;;69.57;32.90;;;;;;;;;;5009337;28;99998;-68
2022/12/10 01:04:52;;;;;;;73.07;33.60;;;;;;;;;;5008706;28;100044;-68
2022/12/10 01:07:18;;;;;;;78.75;35.60;;;;;;;;;;5009097;28;98522;-68
2022/12/10 01:09:44;;;;;;;76.65;34.78;;;;;;;;;;5012682;28;99278;-68
2022/12/10 01:12:11;;;;;;;79.72;34.35;;;;;;;;;;5012357;28;99410;-68
2022/12/10 01:14:37;;;;;;;85.15;36.28;;;;;;;;;;5012522;28;98566;-67
2022/12/10 01:17:04;;;;;;;80.40;36.95;;;;;;;;;;5013138;28;99254;-67
2022/12/10 01:19:32;;;;;;;84.00;35.58;;;;;;;;;;5015341;28;99736;-68
2022/12/10 01:21:58;;;;;;;74.18;34.47;;;;;;;;;;5012362;28;99258;-68
2022/12/10 01:24:25;;;;;;;83.85;35.17;;;;;;;;;;5011738;28;100625;-68
2022/12/10 01:26:52;;;;;;;78.75;36.28;;;;;;;;;;5012202;28;98560;-67
2022/12/10 01:29:18;;;;;;;87.88;39.35;;;;;;;;;;5010818;28;99223;-68
2022/12/10 01:31:47;;;;;;;84.35;36.42;;;;;;;;;;5000406;28;101413;-69
2022/12/10 01:34:14;;;;;;;86.85;37.08;;;;;;;;;;4991933;28;98552;-67
2022/12/10 01:36:41;;;;;;;74.68;34.78;;;;;;;;;;4992280;28;99265;-68
2022/12/10 01:39:09;;;;;;;81.78;36.45;;;;;;;;;;4992246;28;102701;-68
2022/12/10 01:41:37;;;;;;;74.97;35.13;;;;;;;;;;4995993;28;97809;-68
2022/12/10 01:44:09;;;;;;;74.72;35.13;;;;;;;;;;4991913;28;100194;-68
2022/12/10 01:46:37;;;;;;;76.47;34.30;;;;;;;;;;5005655;28;98541;-68
2022/12/10 01:49:05;;;;;;;72.55;33.80;;;;;;;;;;5011362;28;99640;-68
2022/12/10 01:51:32;;;;;;;80.05;34.72;;;;;;;;;;5011973;28;99378;-69
2022/12/10 01:53:59;;;;;;;81.50;34.67;;;;;;;;;;5011848;28;98538;-68
2022/12/10 01:56:25;;;;;;;81.03;36.42;;;;;;;;;;5012008;28;98855;-68
2022/12/10 01:58:54;;;;;;;89.20;35.50;;;;;;;;;;5012026;28;102502;-68
2022/12/10 02:01:20;;;;;;;86.55;37.80;;;;;;;;;;5011477;28;98499;-68
2022/12/10 02:03:52;;;;;;;89.40;35.95;;;;;;;;;;5015210;28;100192;-68
2022/12/10 02:06:29;;;;;;;87.03;35.28;;;;;;;;;;5011695;28;97764;-69
2022/12/10 02:09:02;;;;;;;83.53;36.08;;;;;;;;;;5012313;28;98671;-68
2022/12/10 02:11:32;;;;;;;92.82;37.17;;;;;;;;;;5011447;28;99538;-68
2022/12/10 02:14:02;;;;;;;80.47;35.97;;;;;;;;;;5011247;28;99241;-68
2022/12/10 02:16:36;;;;;;;89.78;36.72;;;;;;;;;;5012050;28;101015;-68
2022/12/10 02:19:08;;;;;;;90.65;37.00;;;;;;;;;;5009492;28;99530;-69
2022/12/10 02:21:37;;;;;;;88.40;36.13;;;;;;;;;;5011369;28;100013;-67
2022/12/10 02:24:05;;;;;;;87.05;36.45;;;;;;;;;;5013160;28;100648;-68
2022/12/10 02:26:37;;;;;;;93.75;36.35;;;;;;;;;;5011509;28;98523;-68
2022/12/10 02:29:06;;;;;;;89.20;37.20;;;;;;;;;;5011303;28;99572;-68
2022/12/10 02:31:33;;;;;;;98.25;37.00;;;;;;;;;;5011474;28;98732;-68
2022/12/10 02:34:00;;;;;;;90.35;36.50;;;;;;;;;;5009849;28;98631;-68
2022/12/10 02:36:28;;;;;;;82.25;35.08;;;;;;;;;;5011616;28;100378;-69
2022/12/10 02:38:56;;;;;;;124.25;37.10;;;;;;;;;;5010076;28;100229;-68
2022/12/10 02:41:25;;;;;;;95.07;38.20;;;;;;;;;;5011637;28;98457;-68
2022/12/10 02:43:52;;;;;;;92.38;34.28;;;;;;;;;;5011054;28;99486;-68
2022/12/10 02:46:19;;;;;;;101.72;36.78;;;;;;;;;;5014586;28;99562;-68
2022/12/10 02:48:46;;;;;;;110.82;36.83;;;;;;;;;;5011193;28;99353;-68
2022/12/10 02:51:12;;;;;;;86.68;36.47;;;;;;;;;;5010357;28;99806;-67
2022/12/10 02:53:42;;;;;;;93.93;37.38;;;;;;;;;;5010963;28;98513;-68
2022/12/10 02:56:33;;;;;;;97.97;37.60;;;;;;;;;;5011658;28;100844;-68
2022/12/10 02:59:06;;;;;;;103.38;36.92;;;;;;;;;;5010281;28;99545;-68
2022/12/10 03:01:41;;;;;;;108.68;38.85;;;;;;;;;;5010742;28;98546;-68
2022/12/10 03:04:16;;;;;;;98.30;36.60;;;;;;;;;;5010566;28;100354;-68
2022/12/10 03:06:47;;;;;;;95.18;38.08;;;;;;;;;;5010445;28;102646;-68
2022/12/10 03:09:36;;;;;;;101.65;37.50;;;;;;;;;;5013953;28;98605;-68
2022/12/10 03:12:07;;;;;;;134.60;38.58;;;;;;;;;;5010207;28;99869;-68
2022/12/10 03:14:34;;;;;;;94.20;37.45;;;;;;;;;;5010670;28;98545;-68
2022/12/10 03:17:01;;;;;;;99.63;39.60;;;;;;;;;;5009663;28;102400;-68
2022/12/10 03:19:39;;;;;;;138.25;40.28;;;;;;;;;;5010466;28;99663;-68
2022/12/10 03:22:07;;;;;;;102.32;39.50;;;;;;;;;;5011478;28;97731;-68
2022/12/10 03:24:33;;;;;;;144.43;38.97;;;;;;;;;;5010273;28;98561;-68
2022/12/10 03:27:01;;;;;;;148.75;40.05;;;;;;;;;;5010404;28;99533;-69
2022/12/10 03:29:30;;;;;;;190.77;38.90;;;;;;;;;;5009675;28;99310;-68
2022/12/10 03:31:58;;;;;;;98.65;37.08;;;;;;;;;;5006199;28;100144;-68
2022/12/10 03:34:24;;;;;;;189.38;37.67;;;;;;;;;;4990489;28;98543;-69
2022/12/10 03:36:51;;;;;;;114.45;35.67;;;;;;;;;;4990497;28;99400;-69
2022/12/10 03:39:17;;;;;;;97.82;35.95;;;;;;;;;;4988862;28;100538;-68
2022/12/10 03:41:44;;;;;;;90.28;35.63;;;;;;;;;;4990568;28;98851;-67
2022/12/10 03:44:10;;;;;;;108.63;35.78;;;;;;;;;;4990133;28;99688;-68
2022/12/10 03:46:37;;;;;;;104.57;36.70;;;;;;;;;;5004401;28;99161;-68
2022/12/10 03:49:03;;;;;;;97.22;35.45;;;;;;;;;;5009781;28;98524;-68
2022/12/10 03:51:30;;;;;;;101.13;32.83;;;;;;;;;;5010037;28;98565;-68
2022/12/10 03:53:56;;;;;;;100.82;35.78;;;;;;;;;;5012763;28;100531;-68
2022/12/10 03:56:22;;;;;;;85.93;31.83;;;;;;;;;;5010124;28;101643;-69
2022/12/10 03:58:49;;;;;;;125.72;31.85;;;;;;;;;;5009629;28;99860;-68
2022/12/10 04:01:15;;;;;;;112.90;30.38;;;;;;;;;;5009830;28;98548;-68
2022/12/10 04:03:42;;;;;;;91.47;32.05;;;;;;;;;;5010205;28;100232;-68
2022/12/10 04:06:11;;;;;;;120.82;32.72;;;;;;;;;;5009310;28;102967;-68
2022/12/10 04:08:38;;;;;;;104.07;32.00;;;;;;;;;;5010070;28;98592;-68
2022/12/10 04:11:05;;;;;;;118.68;34.50;;;;;;;;;;5010247;28;99259;-68
2022/12/10 04:16:26;;;;;;;121.82;36.20;;;;;;;;;;5012620;28;98547;-68
2022/12/10 04:18:57;;;;;;;229.68;34.88;;;;;;;;;;5008934;28;100195;-68
2022/12/10 04:26:58;;;;;;;148.95;33.55;;;;;;;;;;5009107;28;99459;-67
2022/12/10 04:29:28;;;;;;;90.78;30.23;;;;;;;;;;5007974;28;100067;-68
2022/12/10 04:31:54;;;;;;;83.60;29.98;;;;;;;;;;5008172;28;99599;-68
2022/12/10 04:34:21;;;;;;;132.20;33.05;;;;;;;;;;5009391;28;99490;-68
2022/12/10 04:36:48;;;;;;;154.02;32.22;;;;;;;;;;5013278;28;98065;-68
2022/12/10 04:39:14;;;;;;;135.95;34.83;;;;;;;;;;5008932;28;99611;-69
2022/12/10 04:41:41;;;;;;;130.45;33.60;;;;;;;;;;5009310;28;98867;-68
2022/12/10 04:44:08;;;;;;;87.68;32.13;;;;;;;;;;5008753;28;99520;-68
2022/12/10 04:46:35;;;;;;;105.72;35.72;;;;;;;;;;5008889;28;98695;-69
2022/12/10 04:49:02;;;;;;;127.07;36.78;;;;;;;;;;5009372;28;98542;-68
2022/12/10 04:51:28;;;;;;;216.55;35.95;;;;;;;;;;4989225;28;99558;-68
2022/12/10 04:53:54;;;;;;;136.75;32.28;;;;;;;;;;4988785;28;99531;-68
2022/12/10 04:56:21;;;;;;;99.93;34.38;;;;;;;;;;4988935;28;98552;-68
2022/12/10 04:58:47;;;;;;;205.55;39.05;;;;;;;;;;4992076;28;98495;-68
2022/12/10 05:01:14;;;;;;;130.63;35.60;;;;;;;;;;4989795;28;97787;-68
2022/12/10 05:03:40;;;;;;;133.45;35.15;;;;;;;;;;4988933;28;98978;-67
2022/12/10 05:06:08;;;;;;;130.75;36.15;;;;;;;;;;4988633;28;99664;-68
2022/12/10 05:08:35;;;;;;;104.07;36.05;;;;;;;;;;4988544;28;99944;-68
2022/12/10 05:11:02;;;;;;;159.43;34.80;;;;;;;;;;4989249;28;101477;-68
2022/12/10 05:13:28;;;;;;;118.93;33.97;;;;;;;;;;4987386;28;99939;-68
2022/12/10 05:15:55;;;;;;;123.57;34.03;;;;;;;;;;4997351;28;98611;-68
2022/12/10 05:18:21;;;;;;;118.40;37.97;;;;;;;;;;5008910;28;99430;-68
2022/12/10 05:20:47;;;;;;;125.53;36.70;;;;;;;;;;5010485;28;99537;-68
2022/12/10 05:23:29;;;;;;;106.53;36.97;;;;;;;;;;5008411;28;99319;-67
2022/12/10 05:25:58;;;;;;;191.50;41.47;;;;;;;;;;5009236;28;99572;-68
2022/12/10 05:28:24;;;;;;;152.65;38.28;;;;;;;;;;5008876;28;98514;-68
2022/12/10 05:30:51;;;;;;;147.25;35.42;;;;;;;;;;5007323;28;99239;-68
2022/12/10 05:33:17;;;;;;;144.63;36.15;;;;;;;;;;4996451;28;99973;-68
2022/12/10 05:35:46;;;;;;;172.57;35.80;;;;;;;;;;4988622;28;98532;-68
2022/12/10 05:38:13;;;;;;;118.68;37.20;;;;;;;;;;4988789;28;99351;-69
2022/12/10 05:40:39;;;;;;;97.38;34.33;;;;;;;;;;4988528;28;100216;-68
2022/12/10 05:43:05;;;;;;;117.45;34.58;;;;;;;;;;4992236;28;98659;-68
2022/12/10 05:45:32;;;;;;;108.32;35.10;;;;;;;;;;4993054;28;99546;-68
2022/12/10 05:47:58;;;;;;;122.72;36.50;;;;;;;;;;5008447;28;98738;-69
2022/12/10 05:50:25;;;;;;;165.57;33.50;;;;;;;;;;5007309;28;99276;-69
2022/12/10 05:52:51;;;;;;;150.38;33.28;;;;;;;;;;5008373;28;100271;-69
2022/12/10 05:55:17;;;;;;;122.32;31.38;;;;;;;;;;5010271;28;98520;-68
2022/12/10 05:57:43;;;;;;;131.02;32.60;;;;;;;;;;5011379;28;99646;-68
2022/12/10 06:00:10;;;;;;;114.47;32.92;;;;;;;;;;5011332;28;99597;-67
2022/12/10 06:02:37;;;;;;;193.43;32.25;;;;;;;;;;5011841;28;98568;-68
2022/12/10 06:05:03;;;;;;;122.75;32.38;;;;;;;;;;5014414;28;99343;-68
2022/12/10 06:07:30;;;;;;;100.13;31.90;;;;;;;;;;5011414;28;98530;-68
2022/12/10 06:09:56;;;;;;;122.88;33.17;;;;;;;;;;5011852;28;99254;-68
2022/12/10 06:12:22;;;;;;;138.00;37.00;;;;;;;;;;5011356;28;99578;-68
2022/12/10 06:14:48;;;;;;;100.97;36.03;;;;;;;;;;5010857;28;98107;-69
2022/12/10 06:17:15;;;;;;;133.80;32.50;;;;;;;;;;5031000;28;99577;-68
2022/12/10 06:19:41;;;;;;;150.20;32.10;;;;;;;;;;5031595;27;100534;-68
2022/12/10 06:22:07;;;;;;;144.98;32.78;;;;;;;;;;5031211;27;99312;-68
2022/12/10 06:24:34;;;;;;;108.13;31.27;;;;;;;;;;5034582;27;100056;-68
2022/12/10 06:27:00;;;;;;;105.28;32.08;;;;;;;;;;5031945;27;98510;-68
2022/12/10 06:29:26;;;;;;;96.53;33.00;;;;;;;;;;5030159;28;99638;-68
2022/12/10 06:31:53;;;;;;;116.13;34.17;;;;;;;;;;5031168;27;99791;-67
2022/12/10 06:34:19;;;;;;;123.10;31.95;;;;;;;;;;5031378;27;98578;-68
2022/12/10 06:36:45;;;;;;;101.07;30.92;;;;;;;;;;5030061;28;99606;-68
2022/12/10 06:39:11;;;;;;;117.90;32.80;;;;;;;;;;5031814;27;98951;-68
2022/12/10 06:41:38;;;;;;;96.07;34.35;;;;;;;;;;5031483;27;98451;-68
2022/12/10 06:44:07;;;;;;;94.40;32.15;;;;;;;;;;5031302;27;99348;-68
2022/12/10 06:46:33;;;;;;;113.35;32.53;;;;;;;;;;5019676;27;101403;-67
2022/12/10 06:49:00;;;;;;;149.32;33.40;;;;;;;;;;5010903;28;100316;-69
2022/12/10 06:51:27;;;;;;;132.48;33.95;;;;;;;;;;5010674;28;99493;-69
2022/12/10 06:53:53;;;;;;;159.63;33.47;;;;;;;;;;5011078;28;98544;-68
2022/12/10 06:56:19;;;;;;;103.70;33.00;;;;;;;;;;5009527;28;99299;-69
2022/12/10 06:58:46;;;;;;;93.53;31.35;;;;;;;;;;5010753;28;99676;-68
2022/12/10 07:01:17;;;;;;;116.35;33.50;;;;;;;;;;5010573;28;98908;-69
2022/12/10 07:03:43;;;;;;;91.25;32.95;;;;;;;;;;5011336;28;99259;-68
2022/12/10 07:06:10;;;;;;;94.18;31.88;;;;;;;;;;5009158;28;99802;-68
2022/12/10 07:08:37;;;;;;;93.65;33.03;;;;;;;;;;5014173;28;99017;-69
2022/12/10 07:11:04;;;;;;;134.45;34.05;;;;;;;;;;5009701;28;100235;-67
2022/12/10 07:13:31;;;;;;;109.45;34.70;;;;;;;;;;5010859;28;98529;-68
2022/12/10 07:15:57;;;;;;;133.23;33.00;;;;;;;;;;5011230;28;102356;-69
2022/12/10 07:18:24;;;;;;;93.30;32.42;;;;;;;;;;5010256;28;100434;-68
2022/12/10 07:20:50;;;;;;;125.68;32.90;;;;;;;;;;5009760;28;98522;-69
2022/12/10 07:23:16;;;;;;;97.88;33.25;;;;;;;;;;5010461;28;99294;-68
2022/12/10 07:25:43;;;;;;;114.07;31.30;;;;;;;;;;5010414;28;100880;-69
2022/12/10 07:28:09;;;;;;;99.47;30.45;;;;;;;;;;5011021;28;97737;-67
2022/12/10 07:30:35;;;;;;;82.93;29.65;;;;;;;;;;5012465;28;99643;-68
2022/12/10 07:33:02;;;;;;;83.03;29.08;;;;;;;;;;5007828;28;99516;-67
2022/12/10 07:35:28;;;;;;;76.07;28.20;;;;;;;;;;4989962;28;99243;-67
2022/12/10 07:37:54;;;;;;;77.20;28.77;;;;;;;;;;4990153;28;99899;-67
2022/12/10 07:40:21;;;;;;;78.57;28.35;;;;;;;;;;4990471;28;98496;-68
2022/12/10 07:42:47;;;;;;;89.45;29.63;;;;;;;;;;4990105;28;99560;-67
2022/12/10 07:45:13;;;;;;;103.85;30.80;;;;;;;;;;4992202;28;99668;-67
2022/12/10 07:47:39;;;;;;;81.78;30.25;;;;;;;;;;5009876;28;98603;-68
2022/12/10 07:50:06;;;;;;;87.55;31.52;;;;;;;;;;5010333;28;100329;-68
2022/12/10 07:52:33;;;;;;;92.38;30.08;;;;;;;;;;5013463;28;98781;-67
2022/12/10 07:54:59;;;;;;;90.43;31.00;;;;;;;;;;5008675;28;98947;-72
2022/12/10 07:57:25;;;;;;;90.55;30.38;;;;;;;;;;5009466;28;99931;-68
2022/12/10 07:59:52;;;;;;;100.38;29.77;;;;;;;;;;5009703;28;99290;-67
2022/12/10 08:02:18;;;;;;;103.35;30.40;;;;;;;;;;5010029;28;101068;-68
2022/12/10 08:04:44;;;;;;;91.65;30.38;;;;;;;;;;5009532;28;99874;-67
2022/12/10 08:07:11;;;;;;;105.70;31.42;;;;;;;;;;5008400;28;98948;-68
2022/12/10 08:09:37;;;;;;;98.57;32.00;;;;;;;;;;5009931;28;99203;-68
2022/12/10 08:12:03;;;;;;;100.93;28.65;;;;;;;;;;5009021;28;99641;-68
2022/12/10 08:14:30;;;;;;;86.20;28.08;;;;;;;;;;5013203;28;98515;-67
2022/12/10 08:16:56;;;;;;;85.35;28.70;;;;;;;;;;5009719;28;98779;-68
2022/12/10 08:19:22;;;;;;;90.13;31.13;;;;;;;;;;5009899;28;98568;-68
2022/12/10 08:21:55;;;;;;;80.70;30.15;;;;;;;;;;5009507;28;99539;-68
2022/12/10 08:24:21;;;;;;;98.55;29.80;;;;;;;;;;5008917;28;100223;-68
2022/12/10 08:26:47;;;;;;;102.68;30.55;;;;;;;;;;5009418;28;98539;-67
2022/12/10 08:29:14;;;;;;;86.50;29.40;;;;;;;;;;5009426;28;99332;-67
2022/12/10 08:31:40;;;;;;;85.85;31.02;;;;;;;;;;5009315;28;100012;-68
2022/12/10 08:34:14;;;;;;;111.32;31.33;;;;;;;;;;5012869;28;98481;-67
2022/12/10 08:36:40;;;;;;;90.22;27.08;;;;;;;;;;5008994;28;99521;-68
2022/12/10 08:39:06;;;;;;;90.63;29.33;;;;;;;;;;5009582;28;98520;-67
2022/12/10 08:41:33;;;;;;;100.32;27.77;;;;;;;;;;5009927;28;99744;-67
2022/12/10 08:43:59;;;;;;;80.43;28.02;;;;;;;;;;5008831;28;99550;-68
2022/12/10 08:46:26;;;;;;;123.07;28.02;;;;;;;;;;5009504;28;98525;-68
2022/12/10 08:48:52;;;;;;;84.22;26.63;;;;;;;;;;5008756;28;99463;-68
2022/12/10 08:51:19;;;;;;;79.97;28.15;;;;;;;;;;5008622;28;99553;-68
2022/12/10 08:53:46;;;;;;;75.72;28.02;;;;;;;;;;5008989;28;98543;-68
2022/12/10 08:56:12;;;;;;;91.30;29.50;;;;;;;;;;5010923;28;99580;-68
2022/12/10 08:58:39;;;;;;;92.78;30.48;;;;;;;;;;5009145;28;98489;-68
2022/12/10 09:01:06;;;;;;;76.32;27.65;;;;;;;;;;5008979;28;99253;-68
2022/12/10 09:03:33;;;;;;;69.38;26.27;;;;;;;;;;5008951;28;101225;-68
2022/12/10 09:06:03;;;;;;;80.40;28.00;;;;;;;;;;5009481;28;97768;-68
2022/12/10 09:08:30;;;;;;;;;;;;;;;;;;5009375;28;98668;-67
2022/12/10 09:10:56;;;;;;;75.43;26.88;;;;;;;;;;5010263;28;130182;-67
2022/12/10 09:13:22;;;;;;;73.00;25.75;;;;;;;;;;5008713;28;99360;-67
2022/12/10 09:15:52;;;;;;;86.80;30.63;;;;;;;;;;5008191;28;101036;-68
2022/12/10 09:18:19;;;;;;;75.20;28.47;;;;;;;;;;5011966;28;99821;-68
2022/12/10 09:20:45;;;;;;;81.20;27.67;;;;;;;;;;5008429;28;99220;-67
2022/12/10 09:23:11;;;;;;;141.35;30.27;;;;;;;;;;5008826;28;100598;-68
2022/12/10 09:25:38;;;;;;;80.20;28.88;;;;;;;;;;5009115;28;98553;-67
2022/12/10 09:28:04;;;;;;;87.93;28.33;;;;;;;;;;5008828;28;99209;-67
2022/12/10 09:30:30;;;;;;;116.35;30.27;;;;;;;;;;5012405;28;99110;-67
2022/12/10 09:32:57;;;;;;;130.65;29.25;;;;;;;;;;5012166;28;98569;-67
2022/12/10 09:35:23;;;;;;;95.95;29.20;;;;;;;;;;4996752;28;99223;-68
2022/12/10 09:37:50;;;;;;;98.53;31.00;;;;;;;;;;4991275;28;100210;-67
2022/12/10 09:40:17;;;;;;;132.27;31.70;;;;;;;;;;4996124;28;98494;-68
2022/12/10 09:42:49;;;;;;;105.68;32.22;;;;;;;;;;4991839;28;99566;-67
2022/12/10 09:45:24;;;;;;;101.07;31.55;;;;;;;;;;4994905;28;98584;-68
2022/12/10 09:47:53;;;;;;;107.13;33.55;;;;;;;;;;5011813;28;100400;-68
2022/12/10 09:50:26;;;;;;;90.63;29.35;;;;;;;;;;5011389;28;99614;-67
2022/12/10 09:52:54;;;;;;;97.95;29.13;;;;;;;;;;5012140;28;98781;-68
2022/12/10 09:55:32;;;;;;;83.82;26.45;;;;;;;;;;5012391;28;100682;-68
2022/12/10 09:57:59;;;;;;;120.30;28.70;;;;;;;;;;5011937;28;99555;-68
2022/12/10 10:00:28;;;;;;;93.80;27.75;;;;;;;;;;5011745;28;98502;-67
2022/12/10 10:02:56;;;;;;;79.00;24.63;;;;;;;;;;5014429;28;99287;-68
2022/12/10 10:05:24;;;;;;;70.55;26.80;;;;;;;;;;5011769;28;98487;-67
2022/12/10 10:07:52;;;;;;;79.38;26.98;;;;;;;;;;5011848;28;99508;-68
2022/12/10 10:10:19;;;;;;;87.60;26.55;;;;;;;;;;5011298;28;99663;-67
2022/12/10 10:12:45;;;;;;;82.47;29.42;;;;;;;;;;5011703;28;98926;-65
2022/12/10 10:15:13;;;;;;;83.32;27.80;;;;;;;;;;5012176;28;100580;-68
2022/12/10 10:17:45;;;;;;;82.68;28.38;;;;;;;;;;5010327;28;103880;-67
2022/12/10 10:20:12;;;;;;;86.00;28.83;;;;;;;;;;5012515;28;97745;-68
2022/12/10 10:22:39;;;;;;;95.80;29.35;;;;;;;;;;5011452;28;99009;-67
2022/12/10 10:25:12;;;;;;;83.70;28.88;;;;;;;;;;5014621;28;100178;-67
2022/12/10 10:27:38;;;;;;;80.63;26.50;;;;;;;;;;5010845;28;99235;-68
2022/12/10 10:30:06;;;;;;;82.68;25.35;;;;;;;;;;5010953;28;100540;-67
2022/12/10 10:32:36;;;;;;;73.57;27.42;;;;;;;;;;5010051;28;98923;-67
2022/12/10 10:35:02;;;;;;;92.95;28.73;;;;;;;;;;5011755;28;99776;-68
2022/12/10 10:37:30;;;;;;;93.57;27.83;;;;;;;;;;5010823;28;99515;-67
2022/12/10 10:39:57;;;;;;;100.50;26.58;;;;;;;;;;5011043;28;98582;-67
2022/12/10 10:42:43;;;;;;;100.78;25.60;;;;;;;;;;5011274;28;99291;-68
2022/12/10 10:45:28;;;;;;;91.60;27.30;;;;;;;;;;5013254;28;99264;-68
2022/12/10 10:48:14;;;;;;;70.05;25.27;;;;;;;;;;5011376;28;99866;-67
2022/12/10 10:50:46;;;;;;;71.45;24.80;;;;;;;;;;5010736;28;100432;-68
2022/12/10 10:53:20;;;;;;;84.72;26.48;;;;;;;;;;5010886;28;99241;-67
2022/12/10 10:55:47;;;;;;;86.32;26.20;;;;;;;;;;5011020;28;98987;-68
2022/12/10 10:58:17;;;;;;;77.53;26.65;;;;;;;;;;5010669;28;99828;-67
2022/12/10 11:00:52;;;;;;;64.22;24.92;;;;;;;;;;5010567;28;98492;-67
2022/12/10 11:03:18;;;;;;;70.68;25.50;;;;;;;;;;5011035;28;99663;-68
2022/12/10 11:05:47;;;;;;;86.38;25.48;;;;;;;;;;5010267;28;99495;-68
2022/12/10 11:08:15;;;;;;;98.50;27.42;;;;;;;;;;5014044;28;98491;-68
2022/12/10 11:10:49;;;;;;;77.00;25.50;;;;;;;;;;5010056;28;98722;-68
2022/12/10 11:13:22;;;;;;;66.28;24.40;;;;;;;;;;5010675;28;98739;-68
2022/12/10 11:15:54;;;;;;;71.18;25.00;;;;;;;;;;5011107;28;99618;-68
2022/12/10 11:18:30;;;;;;;79.43;26.15;;;;;;;;;;5009840;28;100248;-68
2022/12/10 11:21:11;;;;;;;72.10;25.20;;;;;;;;;;5010728;28;99018;-68
2022/12/10 11:23:39;;;;;;;79.88;28.33;;;;;;;;;;5010637;28;99474;-68
2022/12/10 11:26:11;;;;;;;102.25;27.48;;;;;;;;;;5010046;28;99480;-67
2022/12/10 11:28:49;;;;;;;99.15;26.67;;;;;;;;;;5010468;28;98786;-68
2022/12/10 11:31:32;;;;;;;88.95;29.75;;;;;;;;;;5011931;28;99691;-68
2022/12/10 11:34:18;;;;;;;85.60;27.50;;;;;;;;;;5008975;28;98639;-66
2022/12/10 11:36:44;;;;;;;84.68;29.73;;;;;;;;;;4991446;28;99549;-68
2022/12/10 11:39:29;;;;;;;80.65;28.15;;;;;;;;;;4989881;28;99581;-68
2022/12/10 11:42:03;;;;;;;103.55;28.20;;;;;;;;;;5005589;28;98666;-68
2022/12/10 11:44:34;;;;;;;87.63;27.30;;;;;;;;;;4988222;28;100519;-69
2022/12/10 11:47:16;;;;;;;69.88;25.48;;;;;;;;;;5007402;28;99632;-68
2022/12/10 11:49:48;;;;;;;69.88;24.42;;;;;;;;;;5010773;28;98541;-68
2022/12/10 11:52:17;;;;;;;66.82;22.83;;;;;;;;;;5009441;28;99566;-68
2022/12/10 11:54:48;;;;;;;73.25;25.63;;;;;;;;;;5013142;28;99485;-69
2022/12/10 11:57:20;;;;;;;67.90;25.33;;;;;;;;;;5010203;28;100662;-68
2022/12/10 12:00:00;;;;;;;75.57;26.60;;;;;;;;;;5009701;28;99603;-67
2022/12/10 12:02:34;;;;;;;82.55;26.45;;;;;;;;;;5010713;28;97890;-68
2022/12/10 12:05:13;;;;;;;74.88;26.67;;;;;;;;;;5009866;28;98673;-68
2022/12/10 12:07:44;;;;;;;76.55;26.33;;;;;;;;;;5009196;28;99322;-68
2022/12/10 12:10:10;;;;;;;;;;;;;;;;;;5009720;28;99248;-68
2022/12/10 12:12:50;;;;;;;70.40;25.20;;;;;;;;;;5010410;28;131039;-69
2022/12/10 12:15:27;;;;;;;68.47;24.15;;;;;;;;;;5009834;28;99510;-68
2022/12/10 12:17:59;;;;;;;83.85;26.60;;;;;;;;;;5012967;28;98751;-69
2022/12/10 12:20:29;;;;;;;71.93;25.65;;;;;;;;;;5009392;28;99502;-68
2022/12/10 12:22:58;;;;;;;78.07;27.97;;;;;;;;;;5009439;28;98470;-68
2022/12/10 12:25:45;;;;;;;76.05;25.60;;;;;;;;;;5009624;28;99127;-68
2022/12/10 12:28:17;;;;;;;106.63;26.73;;;;;;;;;;5008266;28;98809;-67
2022/12/10 12:30:45;;;;;;;82.20;26.23;;;;;;;;;;5009391;28;98576;-68
2022/12/10 12:33:29;;;;;;;80.03;30.85;;;;;;;;;;5009860;28;99344;-68
2022/12/10 12:35:58;;;;;;;78.60;29.65;;;;;;;;;;5008996;28;100282;-68
2022/12/10 12:38:30;;;;;;;78.10;28.58;;;;;;;;;;5009347;28;98488;-67
2022/12/10 12:41:02;;;;;;;73.82;28.02;;;;;;;;;;5012520;28;102250;-68
2022/12/10 12:43:34;;;;;;;91.13;26.30;;;;;;;;;;5009429;28;98821;-68
2022/12/10 12:46:02;;;;;;;63.25;26.05;;;;;;;;;;5009029;28;99775;-68
2022/12/10 12:48:34;;;;;;;76.05;26.55;;;;;;;;;;5009294;28;100661;-69
2022/12/10 12:51:02;;;;;;;70.10;26.95;;;;;;;;;;5009091;28;98571;-67
2022/12/10 12:53:29;;;;;;;70.10;24.33;;;;;;;;;;5009897;28;100610;-69
2022/12/10 12:56:09;;;;;;;112.22;24.33;;;;;;;;;;5008825;28;99554;-68
2022/12/10 12:58:43;;;;;;;67.10;25.13;;;;;;;;;;5009419;28;98850;-68
2022/12/10 13:01:18;;;;;;;66.18;24.75;;;;;;;;;;5011665;28;99244;-69
2022/12/10 13:03:45;;;;;;;94.63;24.88;;;;;;;;;;5009864;28;98629;-68
2022/12/10 13:06:28;;;;;;;73.15;24.92;;;;;;;;;;5012698;28;99273;-68
2022/12/10 13:08:54;;;;;;;103.57;27.02;;;;;;;;;;5012577;28;99762;-69
2022/12/10 13:11:36;;;;;;;81.82;26.67;;;;;;;;;;5012671;28;99013;-68
2022/12/10 13:14:08;;;;;;;71.20;26.17;;;;;;;;;;5012408;28;99741;-68
2022/12/10 13:16:34;;;;;;;67.60;25.25;;;;;;;;;;5012830;28;99393;-69
2022/12/10 13:19:33;;;;;;;77.88;25.35;;;;;;;;;;5012942;28;98920;-68
2022/12/10 13:22:01;;;;;;;69.65;25.95;;;;;;;;;;4999988;28;98687;-69
2022/12/10 13:24:36;;;;;;;65.45;23.83;;;;;;;;;;5015272;28;98549;-68
2022/12/10 13:27:08;;;;;;;69.93;25.98;;;;;;;;;;5012091;28;100329;-68
2022/12/10 13:29:53;;;;;;;65.07;25.15;;;;;;;;;;5011921;28;99629;-68
2022/12/10 13:32:22;;;;;;;72.57;26.20;;;;;;;;;;5012290;28;98917;-68
2022/12/10 13:35:12;;;;;;;79.57;26.58;;;;;;;;;;5010644;28;99247;-68
2022/12/10 13:37:48;;;;;;;67.93;26.13;;;;;;;;;;5008524;28;100850;-68
2022/12/10 13:40:14;;;;;;;69.63;26.15;;;;;;;;;;5012135;28;98554;-68
2022/12/10 13:45:32;;;;;;;73.57;26.05;;;;;;;;;;5011904;28;99098;-68
2022/12/10 13:48:07;;;;;;;75.00;26.77;;;;;;;;;;5015486;28;98509;-68
2022/12/10 13:50:40;;;;;;;75.22;24.95;;;;;;;;;;5011605;28;99788;-68
2022/12/10 13:53:15;;;;;;;69.82;26.05;;;;;;;;;;5011553;28;99865;-68
2022/12/10 13:55:47;;;;;;;70.82;24.55;;;;;;;;;;5012065;28;100387;-67
2022/12/10 13:58:14;;;;;;;82.35;25.35;;;;;;;;;;5011689;28;99689;-68
2022/12/10 14:00:52;;;;;;;72.97;25.13;;;;;;;;;;5011940;28;98481;-68
2022/12/10 14:03:42;;;;;;;84.78;24.65;;;;;;;;;;5011975;28;99886;-68
2022/12/10 14:06:11;;;;;;;74.90;24.65;;;;;;;;;;5007911;28;101024;-68
2022/12/10 14:08:38;;;;;;;73.57;25.90;;;;;;;;;;5011997;28;98836;-68
2022/12/10 14:11:08;;;;;;;89.82;25.98;;;;;;;;;;5015302;28;100613;-68
2022/12/10 14:13:40;;;;;;;69.45;25.27;;;;;;;;;;5012068;28;98871;-68
2022/12/10 14:16:10;;;;;;;81.10;27.35;;;;;;;;;;5011237;28;99407;-68
2022/12/10 14:18:38;;;;;;;105.90;26.47;;;;;;;;;;5010632;28;100417;-67
2022/12/10 14:21:06;;;;;;;75.15;26.25;;;;;;;;;;5011541;28;98538;-68
2022/12/10 14:23:33;;;;;;;94.28;31.58;;;;;;;;;;5011743;28;99299;-68
2022/12/10 14:26:05;;;;;;;79.50;27.75;;;;;;;;;;5011151;28;99498;-68
2022/12/10 14:28:34;;;;;;;73.93;27.85;;;;;;;;;;5011608;28;98562;-68
2022/12/10 14:31:01;;;;;;;83.65;33.55;;;;;;;;;;5010074;28;99548;-69
2022/12/10 14:33:28;;;;;;;99.07;30.65;;;;;;;;;;5014244;28;99463;-68